FredonyerEastRWIS Atmospheric Data: 05/22/2020 Summary  Detailed Graphs  Station List

  Temperature     Wind Precipitation Visibility
Timestamp Air Wet
Bulb
Dew-
point
24-hr
Max
24-hr
Min
Relative
Humidity
Atmospheric
Pressure
Avg
Speed
Avg
Dir
Spot
Speed
Spot
Dir
Max
Speed
Max
Dir
  Rate Situation Start End 1 hr 3 hr 6 hr 12 hr 24 hr   Situation
Date Time °F °F °F °F °F % in Hg mph ° mph ° mph ° Y/N in/hr text Date Time Date Time in in in in in mi text
05/22/2020 12:08 AM 45.86 44.96 44.24 62.24 32.18 94.0 Not Reported 2.01 SW 2.91 SW 4.92 SW No 0.000 No Precipitation 05/21/2020 10:42 PM 05/21/2020 10:47 PM 0.000 0.016 0.039 0.039 0.083 Not Reported Not Reported
05/22/2020 12:23 AM 45.86 44.96 44.06 62.24 32.18 93.0 Not Reported 3.13 NW 0.89 SW 4.47 W No 0.000 No Precipitation 05/21/2020 10:42 PM 05/21/2020 10:47 PM 0.000 0.008 0.039 0.039 0.083 Not Reported Not Reported
05/22/2020 12:38 AM 45.68 44.60 43.34 62.24 32.18 91.0 Not Reported 2.46 NW 2.46 W 4.47 W No 0.000 No Precipitation 05/21/2020 10:42 PM 05/21/2020 10:47 PM 0.000 0.008 0.039 0.039 0.083 Not Reported Not Reported
05/22/2020 12:53 AM 45.68 44.24 42.98 62.24 32.18 90.0 Not Reported 3.36 W 1.34 NW 3.80 NW No 0.000 No Precipitation 05/21/2020 10:42 PM 05/21/2020 10:47 PM 0.000 0.008 0.039 0.039 0.083 Not Reported Not Reported
05/22/2020 01:08 AM 44.78 43.88 42.80 62.24 32.18 93.0 Not Reported 2.01 W 1.12 NW 6.26 W No 0.000 No Precipitation 05/21/2020 10:42 PM 05/21/2020 10:47 PM 0.000 0.004 0.039 0.039 0.083 Not Reported Not Reported
05/22/2020 01:23 AM 43.70 43.16 42.62 62.24 32.18 95.0 Not Reported 1.34 W 0.89 W 2.68 NW No 0.000 No Precipitation 05/21/2020 10:42 PM 05/21/2020 10:47 PM 0.000 0.004 0.039 0.039 0.083 Not Reported Not Reported
05/22/2020 01:38 AM 43.70 43.16 42.62 62.24 32.18 96.0 Not Reported 1.57 W 2.01 W 2.91 W No 0.000 No Precipitation 05/21/2020 10:42 PM 05/21/2020 10:47 PM 0.000 0.004 0.039 0.039 0.083 Not Reported Not Reported
05/22/2020 01:53 AM 44.06 43.34 42.80 62.24 32.18 95.0 Not Reported 2.01 W 4.47 W 4.47 W No 0.000 No Precipitation 05/21/2020 10:42 PM 05/21/2020 10:47 PM 0.000 0.000 0.039 0.039 0.083 Not Reported Not Reported
05/22/2020 02:09 AM 43.88 43.34 42.62 62.24 32.18 94.0 Not Reported 2.01 NW 2.24 W 3.13 W No 0.000 No Precipitation 05/21/2020 10:42 PM 05/21/2020 10:47 PM 0.000 0.000 0.035 0.039 0.083 Not Reported Not Reported
05/22/2020 02:23 AM 44.24 43.52 42.62 62.24 32.18 93.0 Not Reported 2.01 NW 0.89 W 3.80 SW No 0.000 No Precipitation 05/21/2020 10:42 PM 05/21/2020 10:47 PM 0.000 0.000 0.028 0.039 0.083 Not Reported Not Reported
05/22/2020 02:38 AM 42.98 42.44 41.72 62.24 32.18 95.0 Not Reported 0.89 NW 2.01 W 3.36 W No 0.000 No Precipitation 05/21/2020 10:42 PM 05/21/2020 10:47 PM 0.000 0.000 0.020 0.039 0.083 Not Reported Not Reported
05/22/2020 02:53 AM 42.98 42.62 42.08 62.24 32.18 96.0 Not Reported 0.45 W 0.45 W 2.68 NW No 0.000 No Precipitation 05/21/2020 10:42 PM 05/21/2020 10:47 PM 0.000 0.000 0.020 0.039 0.083 Not Reported Not Reported
05/22/2020 03:08 AM 42.44 42.08 41.72 62.24 32.18 97.0 Not Reported 1.34 W 1.79 SW 3.58 W No 0.000 No Precipitation 05/21/2020 10:42 PM 05/21/2020 10:47 PM 0.000 0.000 0.016 0.039 0.083 Not Reported Not Reported
05/22/2020 03:23 AM 43.16 42.80 42.44 62.24 32.18 97.0 Not Reported 1.79 W 1.34 W 4.92 W No 0.000 No Precipitation 05/21/2020 10:42 PM 05/21/2020 10:47 PM 0.000 0.000 0.008 0.039 0.083 Not Reported Not Reported
05/22/2020 03:38 AM 42.08 41.90 41.54 62.24 32.18 97.0 Not Reported 1.12 NW 2.01 W 2.91 W No 0.000 No Precipitation 05/21/2020 10:42 PM 05/21/2020 10:47 PM 0.000 0.000 0.008 0.039 0.083 Not Reported Not Reported
05/22/2020 03:54 AM 43.88 43.52 43.16 62.24 32.18 97.0 Not Reported 3.36 NW 2.91 NW 4.25 W No 0.000 No Precipitation 05/21/2020 10:42 PM 05/21/2020 10:47 PM 0.000 0.000 0.008 0.039 0.083 Not Reported Not Reported
05/22/2020 04:08 AM 43.88 43.16 42.44 62.24 32.18 94.0 Not Reported 3.80 NW 3.58 NW 4.70 NW No 0.000 No Precipitation 05/21/2020 10:42 PM 05/21/2020 10:47 PM 0.000 0.000 0.004 0.039 0.083 Not Reported Not Reported
05/22/2020 04:23 AM 44.06 43.16 42.44 62.24 32.18 94.0 Not Reported 0.89 NW 3.36 W 4.47 W No 0.000 No Precipitation 05/21/2020 10:42 PM 05/21/2020 10:47 PM 0.000 0.000 0.004 0.039 0.083 Not Reported Not Reported
05/22/2020 04:38 AM 44.24 42.98 41.72 62.24 32.18 90.0 Not Reported 2.01 NW 2.01 NW 4.47 W No 0.000 No Precipitation 05/21/2020 10:42 PM 05/21/2020 10:47 PM 0.000 0.000 0.004 0.039 0.083 Not Reported Not Reported
05/22/2020 04:54 AM 43.52 41.18 38.84 62.24 32.18 83.0 Not Reported 3.13 W 2.68 NW 6.71 W No 0.000 No Precipitation 05/21/2020 10:42 PM 05/21/2020 10:47 PM 0.000 0.000 0.000 0.039 0.083 Not Reported Not Reported
05/22/2020 05:08 AM 42.98 40.82 38.48 62.24 32.18 84.0 Not Reported 2.46 W 1.12 W 6.26 NW No 0.000 No Precipitation 05/21/2020 10:42 PM 05/21/2020 10:47 PM 0.000 0.000 0.000 0.039 0.083 Not Reported Not Reported
05/22/2020 05:23 AM 42.44 40.10 37.04 62.24 32.18 81.0 Not Reported 3.58 NW 5.37 N 6.49 NW No 0.000 No Precipitation 05/21/2020 10:42 PM 05/21/2020 10:47 PM 0.000 0.000 0.000 0.039 0.083 Not Reported Not Reported
05/22/2020 05:38 AM 42.26 39.38 35.96 62.24 32.18 78.0 Not Reported 4.03 NW 7.83 NW 8.05 NW No 0.000 No Precipitation 05/21/2020 10:42 PM 05/21/2020 10:47 PM 0.000 0.000 0.000 0.039 0.083 Not Reported Not Reported
05/22/2020 05:53 AM 41.36 38.84 35.78 62.24 32.36 80.0 Not Reported 5.59 NW 3.58 NW 10.74 W No 0.000 No Precipitation 05/21/2020 10:42 PM 05/21/2020 10:47 PM 0.000 0.000 0.000 0.039 0.083 Not Reported Not Reported
05/22/2020 06:08 AM 40.28 37.94 35.06 62.24 32.54 81.0 Not Reported 6.49 NW 3.36 NW 9.62 NW No 0.000 No Precipitation 05/21/2020 10:42 PM 05/21/2020 10:47 PM 0.000 0.000 0.000 0.039 0.083 Not Reported Not Reported
05/22/2020 06:23 AM 39.74 37.40 34.16 62.24 32.72 79.0 Not Reported 3.13 NW 2.91 W 7.83 SW No 0.000 No Precipitation 05/21/2020 10:42 PM 05/21/2020 10:47 PM 0.000 0.000 0.000 0.039 0.083 Not Reported Not Reported
05/22/2020 06:39 AM 39.20 36.50 33.08 62.24 33.08 78.0 Not Reported 4.47 NW 4.47 NW 6.26 SW No 0.000 No Precipitation 05/21/2020 10:42 PM 05/21/2020 10:47 PM 0.000 0.000 0.000 0.039 0.083 Not Reported Not Reported
05/22/2020 06:53 AM 38.84 36.32 32.54 62.24 34.70 77.0 Not Reported 3.58 W 1.57 NE 8.50 W No 0.000 No Precipitation 05/21/2020 10:42 PM 05/21/2020 10:47 PM 0.000 0.000 0.000 0.039 0.083 Not Reported Not Reported
05/22/2020 07:08 AM 39.02 36.14 32.00 62.24 36.50 75.0 Not Reported 5.37 NW 2.68 NW 7.83 N No 0.000 No Precipitation 05/21/2020 10:42 PM 05/21/2020 10:47 PM 0.000 0.000 0.000 0.039 0.083 Not Reported Not Reported
05/22/2020 07:23 AM 40.82 37.04 32.00 62.24 38.48 70.0 Not Reported 3.13 S 3.80 E 9.40 NW No 0.000 No Precipitation 05/21/2020 10:42 PM 05/21/2020 10:47 PM 0.000 0.000 0.000 0.039 0.083 Not Reported Not Reported
05/22/2020 07:38 AM 39.92 36.50 31.82 62.24 38.66 71.0 Not Reported 5.37 NW 4.03 NW 10.07 NW No 0.000 No Precipitation 05/21/2020 10:42 PM 05/21/2020 10:47 PM 0.000 0.000 0.000 0.039 0.083 Not Reported Not Reported
05/22/2020 07:53 AM 39.92 35.96 30.74 62.24 38.66 68.0 Not Reported 3.36 NW 4.70 NW 10.29 N No 0.000 No Precipitation 05/21/2020 10:42 PM 05/21/2020 10:47 PM 0.000 0.000 0.000 0.039 0.083 Not Reported Not Reported
05/22/2020 08:09 AM 40.10 35.96 30.56 62.24 38.66 67.0 Not Reported 5.14 NW 2.91 W 7.16 NW No 0.000 No Precipitation 05/21/2020 10:42 PM 05/21/2020 10:47 PM 0.000 0.000 0.000 0.035 0.083 Not Reported Not Reported
05/22/2020 08:23 AM 41.00 36.32 29.66 62.24 38.66 63.0 Not Reported 3.80 W 4.92 SW 6.71 NW No 0.000 No Precipitation 05/21/2020 10:42 PM 05/21/2020 10:47 PM 0.000 0.000 0.000 0.028 0.083 Not Reported Not Reported
05/22/2020 08:39 AM 41.54 36.50 29.48 62.24 38.66 61.0 Not Reported 6.93 NW 6.04 NW 9.40 N No 0.000 No Precipitation 05/21/2020 10:42 PM 05/21/2020 10:47 PM 0.000 0.000 0.000 0.020 0.083 Not Reported Not Reported
05/22/2020 08:53 AM 41.36 36.50 29.84 62.24 38.66 62.0 Not Reported 4.47 W 5.59 SW 8.28 SW No 0.000 No Precipitation 05/21/2020 10:42 PM 05/21/2020 10:47 PM 0.000 0.000 0.000 0.020 0.083 Not Reported Not Reported
05/22/2020 09:08 AM 42.08 36.50 28.76 62.24 38.66 58.0 Not Reported 2.68 W 6.71 N 9.17 NW No 0.000 No Precipitation 05/21/2020 10:42 PM 05/21/2020 10:47 PM 0.000 0.000 0.000 0.016 0.083 Not Reported Not Reported
05/22/2020 09:23 AM 43.34 36.86 27.50 62.24 38.66 53.0 Not Reported 6.71 NW 2.46 NE 11.41 NW No 0.000 No Precipitation 05/21/2020 10:42 PM 05/21/2020 10:47 PM 0.000 0.000 0.000 0.008 0.083 Not Reported Not Reported
05/22/2020 09:38 AM 44.24 37.22 26.78 62.24 38.66 49.0 Not Reported 4.03 W 5.14 W 5.14 W No 0.000 No Precipitation 05/21/2020 10:42 PM 05/21/2020 10:47 PM 0.000 0.000 0.000 0.008 0.083 Not Reported Not Reported
05/22/2020 09:53 AM 45.14 37.76 26.78 62.24 38.66 47.0 Not Reported 2.01 NE 3.13 NW 6.93 N No 0.000 No Precipitation 05/21/2020 10:42 PM 05/21/2020 10:47 PM 0.000 0.000 0.000 0.008 0.083 Not Reported Not Reported
05/22/2020 10:08 AM 44.78 37.22 26.06 62.24 38.66 47.0 Not Reported 3.36 W 4.03 SE 9.84 NW No 0.000 No Precipitation 05/21/2020 10:42 PM 05/21/2020 10:47 PM 0.000 0.000 0.000 0.004 0.083 Not Reported Not Reported
05/22/2020 10:23 AM 45.86 38.12 26.96 62.24 38.66 46.0 Not Reported 3.58 NW 2.91 NW 6.71 SW No 0.000 No Precipitation 05/21/2020 10:42 PM 05/21/2020 10:47 PM 0.000 0.000 0.000 0.004 0.039 Not Reported Not Reported
05/22/2020 10:39 AM 45.86 37.22 23.18 62.24 38.66 40.0 Not Reported 3.13 SW 2.24 NE 8.28 N No 0.000 No Precipitation 05/21/2020 10:42 PM 05/21/2020 10:47 PM 0.000 0.000 0.000 0.004 0.039 Not Reported Not Reported
05/22/2020 10:53 AM 46.04 38.48 27.68 62.24 38.66 48.0 Not Reported 5.37 NE 4.92 NE 8.50 NE No 0.000 No Precipitation 05/21/2020 10:42 PM 05/21/2020 10:47 PM 0.000 0.000 0.000 0.000 0.039 Not Reported Not Reported
05/22/2020 11:08 AM 46.58 37.58 23.54 62.24 38.66 39.0 Not Reported 2.91 W 2.91 W 6.49 N No 0.000 No Precipitation 05/21/2020 10:42 PM 05/21/2020 10:47 PM 0.000 0.000 0.000 0.000 0.039 Not Reported Not Reported
05/22/2020 11:23 AM 48.74 39.20 25.16 62.24 38.66 38.0 Not Reported 3.58 E 5.59 N 7.83 NE No 0.000 No Precipitation 05/21/2020 10:42 PM 05/21/2020 10:47 PM 0.000 0.000 0.000 0.000 0.039 Not Reported Not Reported
05/22/2020 11:38 AM 48.38 38.66 24.08 62.24 38.66 37.0 Not Reported 2.46 E 6.49 NE 6.49 NE No 0.000 No Precipitation 05/21/2020 10:42 PM 05/21/2020 10:47 PM 0.000 0.000 0.000 0.000 0.039 Not Reported Not Reported
05/22/2020 11:53 AM 47.48 37.94 23.00 62.24 38.66 37.0 Not Reported 2.24 NE 1.79 E 7.16 E No 0.000 No Precipitation 05/21/2020 10:42 PM 05/21/2020 10:47 PM 0.000 0.000 0.000 0.000 0.039 Not Reported Not Reported
05/22/2020 12:09 PM 48.74 38.12 20.84 62.24 38.66 32.0 Not Reported 4.70 NE 7.16 N 7.83 N No 0.000 No Precipitation 05/21/2020 10:42 PM 05/21/2020 10:47 PM 0.000 0.000 0.000 0.000 0.039 Not Reported Not Reported
05/22/2020 12:23 PM 48.38 37.40 18.86 62.24 38.66 30.0 Not Reported 3.13 NW 4.92 W 6.71 NW No 0.000 No Precipitation 05/21/2020 10:42 PM 05/21/2020 10:47 PM 0.000 0.000 0.000 0.000 0.039 Not Reported Not Reported
05/22/2020 12:38 PM 50.36 39.02 20.84 62.06 38.66 30.0 Not Reported 3.58 N 4.03 W 11.86 NE No 0.000 No Precipitation 05/21/2020 10:42 PM 05/21/2020 10:47 PM 0.000 0.000 0.000 0.000 0.039 Not Reported Not Reported
05/22/2020 12:53 PM 53.24 40.46 20.30 62.06 38.66 27.0 Not Reported 4.25 N 6.71 N 7.16 N No 0.000 No Precipitation 05/21/2020 10:42 PM 05/21/2020 10:47 PM 0.000 0.000 0.000 0.000 0.039 Not Reported Not Reported
05/22/2020 01:08 PM 50.54 38.84 20.12 62.06 38.66 29.0 Not Reported 5.37 NE 3.80 NE 7.38 E No 0.000 No Precipitation 05/21/2020 10:42 PM 05/21/2020 10:47 PM 0.000 0.000 0.000 0.000 0.039 Not Reported Not Reported
05/22/2020 01:23 PM 53.96 40.64 19.58 62.06 38.66 25.0 Not Reported 6.71 NW 3.13 NW 7.83 NW No 0.000 No Precipitation 05/21/2020 10:42 PM 05/21/2020 10:47 PM 0.000 0.000 0.000 0.000 0.039 Not Reported Not Reported
05/22/2020 01:38 PM 52.70 39.74 19.04 62.06 38.66 25.0 Not Reported 4.70 NE 3.13 E 7.16 NE No 0.000 No Precipitation 05/21/2020 10:42 PM 05/21/2020 10:47 PM 0.000 0.000 0.000 0.000 0.039 Not Reported Not Reported
05/22/2020 01:53 PM 51.98 38.84 16.52 62.06 38.66 24.0 Not Reported 6.71 N 2.68 NE 8.28 NE No 0.000 No Precipitation 05/21/2020 10:42 PM 05/21/2020 10:47 PM 0.000 0.000 0.000 0.000 0.039 Not Reported Not Reported
05/22/2020 02:08 PM 52.88 39.38 16.52 61.52 38.66 23.0 Not Reported 4.70 N 8.28 NE 12.08 NW No 0.000 No Precipitation 05/21/2020 10:42 PM 05/21/2020 10:47 PM 0.000 0.000 0.000 0.000 0.039 Not Reported Not Reported
05/22/2020 02:23 PM 52.16 38.84 15.44 60.98 38.66 22.0 Not Reported 3.36 W 2.91 SE 7.83 N No 0.000 No Precipitation 05/21/2020 10:42 PM 05/21/2020 10:47 PM 0.000 0.000 0.000 0.000 0.039 Not Reported Not Reported
05/22/2020 02:38 PM 54.86 40.28 15.08 60.80 38.66 20.0 Not Reported 3.58 NW 3.13 NE 8.50 N No 0.000 No Precipitation 05/21/2020 10:42 PM 05/21/2020 10:47 PM 0.000 0.000 0.000 0.000 0.039 Not Reported Not Reported
05/22/2020 02:53 PM 53.96 39.02 11.66 60.80 38.66 18.0 Not Reported 4.47 E 4.47 N 9.84 NE No 0.000 No Precipitation 05/21/2020 10:42 PM 05/21/2020 10:47 PM 0.000 0.000 0.000 0.000 0.039 Not Reported Not Reported
05/22/2020 03:08 PM 53.96 39.20 12.20 60.26 38.66 18.0 Not Reported 3.13 E 3.36 E 6.49 N No 0.000 No Precipitation 05/21/2020 10:42 PM 05/21/2020 10:47 PM 0.000 0.000 0.000 0.000 0.039 Not Reported Not Reported
05/22/2020 03:23 PM 53.60 39.20 13.46 60.26 38.66 19.0 Not Reported 3.36 NW 4.03 NE 4.92 N No 0.000 No Precipitation 05/21/2020 10:42 PM 05/21/2020 10:47 PM 0.000 0.000 0.000 0.000 0.039 Not Reported Not Reported
05/22/2020 03:38 PM 53.78 39.56 15.08 60.26 38.66 21.0 Not Reported 3.58 NE 4.47 NE 8.05 N No 0.000 No Precipitation 05/21/2020 10:42 PM 05/21/2020 10:47 PM 0.000 0.000 0.000 0.000 0.039 Not Reported Not Reported
05/22/2020 03:53 PM 55.04 39.38 10.04 59.72 38.66 16.0 Not Reported 4.47 N 3.13 N 6.04 E No 0.000 No Precipitation 05/21/2020 10:42 PM 05/21/2020 10:47 PM 0.000 0.000 0.000 0.000 0.039 Not Reported Not Reported
05/22/2020 04:08 PM 55.40 40.10 12.92 59.54 38.66 18.0 Not Reported 2.91 NE 2.01 NW 6.49 NE No 0.000 No Precipitation 05/21/2020 10:42 PM 05/21/2020 10:47 PM 0.000 0.000 0.000 0.000 0.039 Not Reported Not Reported
05/22/2020 04:23 PM 56.66 41.72 18.32 59.54 38.66 21.0 Not Reported 1.57 NE 2.24 N 6.26 SE No 0.000 No Precipitation 05/21/2020 10:42 PM 05/21/2020 10:47 PM 0.000 0.000 0.000 0.000 0.039 Not Reported Not Reported
05/22/2020 04:38 PM 55.94 40.64 14.72 59.54 38.66 19.0 Not Reported 3.36 NE 1.12 N 8.50 NE No 0.000 No Precipitation 05/21/2020 10:42 PM 05/21/2020 10:47 PM 0.000 0.000 0.000 0.000 0.039 Not Reported Not Reported
05/22/2020 04:53 PM 55.22 39.56 10.58 59.54 38.66 16.0 Not Reported 1.34 N 2.68 W 5.82 NE No 0.000 No Precipitation 05/21/2020 10:42 PM 05/21/2020 10:47 PM 0.000 0.000 0.000 0.000 0.039 Not Reported Not Reported
05/22/2020 05:08 PM 54.86 39.92 13.46 59.54 38.66 18.0 Not Reported 3.58 NW 1.34 NE 6.26 N No 0.000 No Precipitation 05/21/2020 10:42 PM 05/21/2020 10:47 PM 0.000 0.000 0.000 0.000 0.039 Not Reported Not Reported
05/22/2020 05:23 PM 54.86 39.74 12.38 59.00 38.66 18.0 Not Reported 3.58 N 4.03 NW 6.71 NW No 0.000 No Precipitation 05/21/2020 10:42 PM 05/21/2020 10:47 PM 0.000 0.000 0.000 0.000 0.039 Not Reported Not Reported
05/22/2020 05:38 PM 53.96 38.84 10.58 59.00 38.66 17.0 Not Reported 4.47 NW 5.59 NW 7.83 NE No 0.000 No Precipitation 05/21/2020 10:42 PM 05/21/2020 10:47 PM 0.000 0.000 0.000 0.000 0.039 Not Reported Not Reported
05/22/2020 05:53 PM 54.86 39.92 14.18 58.28 38.66 19.0 Not Reported 4.47 N 2.24 NE 6.49 N No 0.000 No Precipitation 05/21/2020 10:42 PM 05/21/2020 10:47 PM 0.000 0.000 0.000 0.000 0.039 Not Reported Not Reported
05/22/2020 06:08 PM 54.50 40.10 16.34 58.28 38.66 21.0 Not Reported 2.91 NE 2.01 N 4.92 N No 0.000 No Precipitation 05/21/2020 10:42 PM 05/21/2020 10:47 PM 0.000 0.000 0.000 0.000 0.039 Not Reported Not Reported
05/22/2020 06:23 PM 53.60 39.20 14.18 56.84 38.66 20.0 Not Reported 3.80 N 2.91 N 4.70 NW No 0.000 No Precipitation 05/21/2020 10:42 PM 05/21/2020 10:47 PM 0.000 0.000 0.000 0.000 0.039 Not Reported Not Reported
05/22/2020 06:38 PM 53.24 39.38 15.08 56.84 38.66 21.0 Not Reported 1.34 NW 0.00 N 6.26 N No 0.000 No Precipitation 05/21/2020 10:42 PM 05/21/2020 10:47 PM 0.000 0.000 0.000 0.000 0.039 Not Reported Not Reported
05/22/2020 06:53 PM 51.62 39.38 19.04 56.84 38.66 27.0 Not Reported 2.01 N 0.89 NW 5.82 N No 0.000 No Precipitation 05/21/2020 10:42 PM 05/21/2020 10:47 PM 0.000 0.000 0.000 0.000 0.039 Not Reported Not Reported
05/22/2020 07:09 PM 48.56 37.94 21.02 56.84 38.66 33.0 Not Reported 2.91 NE 2.68 N 5.37 NE No 0.000 No Precipitation 05/21/2020 10:42 PM 05/21/2020 10:47 PM 0.000 0.000 0.000 0.000 0.039 Not Reported Not Reported
05/22/2020 07:23 PM 45.32 37.94 27.32 56.84 38.66 48.0 Not Reported 1.57 NW 1.12 S 4.03 N No 0.000 No Precipitation 05/21/2020 10:42 PM 05/21/2020 10:47 PM 0.000 0.000 0.000 0.000 0.039 Not Reported Not Reported
05/22/2020 07:38 PM 43.16 37.40 29.12 56.84 38.66 57.0 Not Reported 2.01 NW 1.57 NW 2.91 NW No 0.000 No Precipitation 05/21/2020 10:42 PM 05/21/2020 10:47 PM 0.000 0.000 0.000 0.000 0.039 Not Reported Not Reported
05/22/2020 07:53 PM 41.72 36.86 30.02 56.84 38.66 62.0 Not Reported 0.67 NW 0.67 NW 1.79 NW No 0.000 No Precipitation 05/21/2020 10:42 PM 05/21/2020 10:47 PM 0.000 0.000 0.000 0.000 0.039 Not Reported Not Reported
05/22/2020 08:08 PM 41.00 36.14 28.94 56.84 38.66 61.0 Not Reported 1.34 W 0.67 W 1.79 W No 0.000 No Precipitation 05/21/2020 10:42 PM 05/21/2020 10:47 PM 0.000 0.000 0.000 0.000 0.035 Not Reported Not Reported
05/22/2020 08:23 PM 38.84 34.70 28.76 56.84 38.66 66.0 Not Reported 1.12 NW 0.89 NW 1.34 NW No 0.000 No Precipitation 05/21/2020 10:42 PM 05/21/2020 10:47 PM 0.000 0.000 0.000 0.000 0.028 Not Reported Not Reported
05/22/2020 08:38 PM 38.30 34.70 29.48 56.84 38.30 69.0 Not Reported 0.89 NW 0.45 NW 0.89 NW No 0.000 No Precipitation 05/21/2020 10:42 PM 05/21/2020 10:47 PM 0.000 0.000 0.000 0.000 0.020 Not Reported Not Reported
05/22/2020 08:53 PM 37.04 33.80 29.30 56.84 37.04 72.0 Not Reported 0.89 N 0.89 NW 3.13 NW No 0.000 No Precipitation 05/21/2020 10:42 PM 05/21/2020 10:47 PM 0.000 0.000 0.000 0.000 0.020 Not Reported Not Reported
05/22/2020 09:09 PM 36.32 33.26 28.76 56.84 36.32 73.0 Not Reported 0.22 NW 0.22 NW 1.57 S No 0.000 No Precipitation 05/21/2020 10:42 PM 05/21/2020 10:47 PM 0.000 0.000 0.000 0.000 0.016 Not Reported Not Reported
05/22/2020 09:23 PM 35.78 32.90 28.58 56.84 35.60 74.0 Not Reported 0.67 SW 0.00 SW 1.12 NW No 0.000 No Precipitation 05/21/2020 10:42 PM 05/21/2020 10:47 PM 0.000 0.000 0.000 0.000 0.008 Not Reported Not Reported
05/22/2020 09:38 PM 34.52 32.00 28.22 56.84 34.52 76.0 Not Reported 0.00 W 0.00 W 1.12 NW No 0.000 No Precipitation 05/21/2020 10:42 PM 05/21/2020 10:47 PM 0.000 0.000 0.000 0.000 0.008 Not Reported Not Reported
05/22/2020 09:53 PM 33.98 32.00 28.40 56.84 33.98 79.0 Not Reported 0.00 N 0.00 S 0.00 S No 0.000 No Precipitation 05/21/2020 10:42 PM 05/21/2020 10:47 PM 0.000 0.000 0.000 0.000 0.008 Not Reported Not Reported
05/22/2020 10:09 PM 33.26 31.28 27.68 56.84 33.26 79.0 Not Reported 0.22 W 0.00 W 0.89 W No 0.000 No Precipitation 05/21/2020 10:42 PM 05/21/2020 10:47 PM 0.000 0.000 0.000 0.000 0.004 Not Reported Not Reported
05/22/2020 10:23 PM 32.72 30.92 27.32 56.84 32.72 79.0 Not Reported 0.89 N 0.00 N 0.89 N No 0.000 No Precipitation 05/21/2020 10:42 PM 05/21/2020 10:47 PM 0.000 0.000 0.000 0.000 0.004 Not Reported Not Reported
05/22/2020 10:38 PM 32.36 30.38 26.78 56.84 32.36 79.0 Not Reported 0.00 N 0.00 N 1.12 W No 0.000 No Precipitation 05/21/2020 10:42 PM 05/21/2020 10:47 PM 0.000 0.000 0.000 0.000 0.004 Not Reported Not Reported
05/22/2020 10:53 PM 32.36 30.56 27.14 56.84 32.00 80.0 Not Reported 0.45 S 0.67 S 1.12 S No 0.000 No Precipitation 05/21/2020 10:42 PM 05/21/2020 10:47 PM 0.000 0.000 0.000 0.000 0.000 Not Reported Not Reported
05/22/2020 11:09 PM 31.64 30.02 26.78 56.84 31.64 81.0 Not Reported 0.00 N 0.00 W 0.00 N No 0.000 No Precipitation 05/21/2020 10:42 PM 05/21/2020 10:47 PM 0.000 0.000 0.000 0.000 0.000 Not Reported Not Reported
05/22/2020 11:23 PM 31.46 29.66 26.60 56.84 31.46 82.0 Not Reported 0.89 W 1.57 NW 1.57 NW No 0.000 No Precipitation 05/21/2020 10:42 PM 05/21/2020 10:47 PM 0.000 0.000 0.000 0.000 0.000 Not Reported Not Reported
05/22/2020 11:38 PM 31.28 29.66 26.78 56.84 31.28 83.0 Not Reported 0.00 N 0.00 SW 0.00 SW No 0.000 No Precipitation 05/21/2020 10:42 PM 05/21/2020 10:47 PM 0.000 0.000 0.000 0.000 0.000 Not Reported Not Reported
05/22/2020 11:53 PM 30.74 29.30 26.78 56.84 30.56 85.0 Not Reported 0.67 NW 0.00 NW 1.12 NW No 0.000 No Precipitation 05/21/2020 10:42 PM 05/21/2020 10:47 PM 0.000 0.000 0.000 0.000 0.000 Not Reported Not Reported